Time;durP1;ratioP1;P1;durP2;ratioP2;P2;SDS_P1;SDS_P2;PMS_P1;PMS_P2;Temp;Humidity;BMP_temperature;BMP_pressure;BME280_temperature;BME280_humidity;BME280_pressure;Samples;Min_cycle;Max_cycle;Signal;HPM_P1;HPM_P2
2021/08/13 00:02:03;;;;;;;8.30;7.50;;;18.90;99.90;;;;;;5050452;28;20184;-75
2021/08/13 00:04:28;;;;;;;9.33;8.30;;;18.70;99.90;;;;;;5055839;28;20235;-75
2021/08/13 00:06:54;;;;;;;8.80;7.90;;;18.40;99.90;;;;;;5054923;28;20439;-75
2021/08/13 00:09:22;;;;;;;7.73;6.87;;;18.40;99.90;;;;;;5052605;28;20181;-75
2021/08/13 00:11:48;;;;;;;8.70;7.80;;;18.30;99.90;;;;;;5053701;28;20176;-75
2021/08/13 00:14:14;;;;;;;11.20;7.77;;;18.10;99.90;;;;;;5047541;28;20434;-75
2021/08/13 00:16:40;;;;;;;9.30;7.50;;;18.20;99.90;;;;;;5052469;28;20445;-75
2021/08/13 00:19:05;;;;;;;8.57;7.70;;;18.30;99.90;;;;;;5055648;28;20194;-75
2021/08/13 00:21:31;;;;;;;9.20;8.30;;;18.10;99.90;;;;;;5054363;28;20187;-76
2021/08/13 00:23:57;;;;;;;9.53;8.63;;;18.10;99.90;;;;;;5054831;28;20207;-76
2021/08/13 00:26:23;;;;;;;9.40;8.50;;;18.00;99.90;;;;;;5051986;28;20191;-76
2021/08/13 00:28:49;;;;;;;9.13;8.33;;;18.30;99.90;;;;;;5048942;28;20639;-76
2021/08/13 00:31:15;;;;;;;8.77;7.87;;;18.40;99.90;;;;;;5057862;28;20434;-76
2021/08/13 00:33:40;;;;;;;9.40;8.50;;;18.30;99.90;;;;;;5055248;28;20862;-75
2021/08/13 00:36:06;;;;;;;8.57;7.77;;;18.10;99.90;;;;;;5050409;28;20691;-76
2021/08/13 00:38:31;;;;;;;9.40;8.50;;;18.20;99.90;;;;;;5053964;28;20228;-76
2021/08/13 00:40:57;;;;;;;9.60;7.77;;;18.20;99.90;;;;;;5053778;28;20183;-76
2021/08/13 00:43:22;;;;;;;9.10;8.27;;;18.10;99.90;;;;;;5050725;28;20592;-77
2021/08/13 00:45:48;;;;;;;10.33;8.73;;;18.10;99.90;;;;;;5052211;28;20196;-76
2021/08/13 00:48:13;;;;;;;10.60;9.47;;;18.10;99.90;;;;;;5056549;28;20209;-77
2021/08/13 00:50:39;;;;;;;9.90;8.90;;;18.20;99.90;;;;;;5060591;28;20176;-76
2021/08/13 00:53:08;;;;;;;9.33;8.30;;;18.20;99.90;;;;;;5057725;28;20216;-76
2021/08/13 00:55:34;;;;;;;9.33;8.43;;;18.10;99.90;;;;;;5053911;28;20235;-76
2021/08/13 00:58:00;;;;;;;10.37;9.40;;;18.10;99.90;;;;;;5051753;28;20435;-77
2021/08/13 01:00:26;;;;;;;9.70;8.83;;;17.90;99.90;;;;;;5051838;28;20956;-76
2021/08/13 01:02:51;;;;;;;9.40;7.50;;;17.70;99.90;;;;;;5051414;28;20445;-76
2021/08/13 01:05:17;;;;;;;8.77;7.80;;;18.10;99.90;;;;;;5049457;28;20215;-76
2021/08/13 01:07:43;;;;;;;8.83;8.00;;;17.90;99.90;;;;;;5059014;28;20183;-76
2021/08/13 01:10:09;;;;;;;8.30;7.50;;;17.90;99.90;;;;;;5051318;28;20189;-76
2021/08/13 01:13:11;;;;;;;9.73;8.53;;;17.70;99.90;;;;;;5050545;28;20443;-76
2021/08/13 01:15:46;;;;;;;9.47;8.47;;;18.10;99.90;;;;;;5054653;28;20542;-75
2021/08/13 01:18:22;;;;;;;9.23;8.43;;;17.60;99.90;;;;;;5053647;28;20430;-76
2021/08/13 01:21:26;;;;;;;9.33;8.43;;;17.80;99.90;;;;;;5052672;28;20444;-77
2021/08/13 01:24:18;;;;;;;9.90;8.93;;;17.80;99.90;;;;;;5044430;28;20482;-76
2021/08/13 01:27:00;;;;;;;10.80;9.63;;;17.90;99.90;;;;;;5046076;28;20810;-76
2021/08/13 01:29:35;;;;;;;10.30;9.20;;;17.70;99.90;;;;;;5052980;28;20437;-76
2021/08/13 01:32:12;;;;;;;9.80;8.80;;;17.60;99.90;;;;;;5047852;28;20426;-76
2021/08/13 01:34:47;;;;;;;10.40;9.33;;;17.90;99.90;;;;;;5051478;28;20455;-76
2021/08/13 01:37:14;;;;;;;12.90;9.67;;;17.60;99.90;;;;;;5054449;28;20529;-76
2021/08/13 01:39:41;;;;;;;10.30;9.40;;;17.80;99.90;;;;;;5046950;28;20984;-76
2021/08/13 01:42:07;;;;;;;10.33;9.33;;;17.80;99.90;;;;;;5053748;28;20447;-77
2021/08/13 01:44:34;;;;;;;9.47;8.37;;;17.80;99.90;;;;;;5044537;28;20469;-77
2021/08/13 01:47:00;;;;;;;10.73;9.70;;;17.60;99.90;;;;;;5047633;28;20440;-76
2021/08/13 01:49:27;;;;;;;10.90;9.83;;;17.60;99.90;;;;;;5047192;28;20434;-76
2021/08/13 01:51:53;;;;;;;9.90;9.10;;;17.70;99.90;;;;;;5050262;28;20433;-76
2021/08/13 01:54:21;;;;;;;11.00;9.90;;;17.80;99.90;;;;;;5047227;28;20874;-76
2021/08/13 01:56:46;;;;;;;10.00;9.00;;;17.50;99.90;;;;;;5048057;28;20813;-76
2021/08/13 01:59:13;;;;;;;11.23;10.13;;;17.70;99.90;;;;;;5047052;28;20438;-76
2021/08/13 02:01:46;;;;;;;9.80;8.90;;;17.80;99.90;;;;;;5049125;28;20651;-76
2021/08/13 02:04:19;;;;;;;10.17;9.17;;;17.40;99.90;;;;;;5045113;28;20461;-76
2021/08/13 02:06:46;;;;;;;10.17;9.10;;;17.80;99.90;;;;;;5048741;28;20446;-76
2021/08/13 02:09:13;;;;;;;9.43;8.57;;;17.60;99.90;;;;;;5049771;28;20522;-76
2021/08/13 02:11:39;;;;;;;10.57;9.57;;;17.80;99.90;;;;;;5050234;28;20457;-76
2021/08/13 02:14:04;;;;;;;10.83;9.93;;;17.70;99.90;;;;;;5048063;28;20437;-76
2021/08/13 02:16:33;;;;;;;9.13;8.40;;;17.50;99.90;;;;;;5046622;28;20544;-75
2021/08/13 02:19:11;;;;;;;10.17;8.97;;;17.50;99.90;;;;;;5048246;28;20208;-75
2021/08/13 02:21:40;;;;;;;8.90;8.10;;;17.90;99.90;;;;;;5040171;28;20441;-75
2021/08/13 02:24:06;;;;;;;9.03;8.10;;;17.70;99.90;;;;;;5046215;28;20508;-75
2021/08/13 02:26:32;;;;;;;9.97;8.93;;;17.80;99.90;;;;;;5048623;28;20947;-75
2021/08/13 02:28:57;;;;;;;9.43;8.43;;;17.70;99.90;;;;;;5048050;28;20283;-75
2021/08/13 02:31:23;;;;;;;10.37;9.27;;;17.70;99.90;;;;;;5044666;28;20206;-74
2021/08/13 02:33:49;;;;;;;9.87;8.90;;;17.70;99.90;;;;;;5047653;28;20213;-75
2021/08/13 02:36:16;;;;;;;9.70;8.80;;;17.50;99.90;;;;;;5046667;28;20262;-74
2021/08/13 02:38:58;;;;;;;10.00;9.10;;;17.70;99.90;;;;;;5049429;28;20474;-75
2021/08/13 02:41:26;;;;;;;10.30;9.30;;;17.70;99.90;;;;;;5043753;28;20430;-75
2021/08/13 02:43:56;;;;;;;8.80;8.00;;;17.90;99.90;;;;;;5049512;28;20465;-75
2021/08/13 02:46:23;;;;;;;10.10;9.20;;;17.70;99.90;;;;;;5046412;28;20434;-75
2021/08/13 02:48:53;;;;;;;9.83;8.93;;;17.50;99.90;;;;;;5047698;28;20711;-75
2021/08/13 02:51:20;;;;;;;9.80;8.90;;;17.40;99.90;;;;;;5045877;28;20431;-75
2021/08/13 02:53:49;;;;;;;10.23;9.23;;;17.40;99.90;;;;;;5047220;28;20482;-74
2021/08/13 02:56:17;;;;;;;9.47;8.67;;;17.60;99.90;;;;;;5047835;28;20429;-75
2021/08/13 02:58:53;;;;;;;10.67;9.67;;;17.50;99.90;;;;;;5043936;28;20422;-74
2021/08/13 03:01:23;;;;;;;10.20;9.10;;;17.50;99.90;;;;;;5042308;28;20472;-75
2021/08/13 03:03:51;;;;;;;9.67;8.77;;;17.60;99.90;;;;;;5045039;28;20982;-75
2021/08/13 03:06:19;;;;;;;10.93;8.97;;;17.50;99.90;;;;;;5045581;28;20432;-74
2021/08/13 03:08:47;;;;;;;11.63;10.43;;;17.50;99.90;;;;;;5047474;28;20433;-75
2021/08/13 03:11:14;;;;;;;10.37;9.27;;;17.40;99.90;;;;;;5043379;28;20425;-75
2021/08/13 03:13:40;;;;;;;9.60;8.70;;;17.90;99.90;;;;;;5047476;28;20435;-75
2021/08/13 03:16:07;;;;;;;9.83;8.83;;;17.70;99.90;;;;;;5046945;28;20441;-74
2021/08/13 03:18:33;;;;;;;10.03;9.13;;;17.60;99.90;;;;;;5047451;28;20462;-75
2021/08/13 03:21:10;;;;;;;11.60;9.30;;;17.80;99.90;;;;;;5044224;28;20438;-75
2021/08/13 03:23:40;;;;;;;9.70;8.60;;;18.00;99.90;;;;;;5043648;28;20550;-75
2021/08/13 03:26:08;;;;;;;10.07;9.20;;;17.50;99.90;;;;;;5045520;28;20846;-74
2021/08/13 03:28:34;;;;;;;9.60;8.70;;;17.80;99.90;;;;;;5039696;28;20505;-76
2021/08/13 03:31:00;;;;;;;11.03;9.93;;;17.80;99.90;;;;;;5046848;28;20431;-76
2021/08/13 03:33:26;;;;;;;10.00;9.03;;;17.70;99.90;;;;;;5048360;28;20841;-76
2021/08/13 03:35:52;;;;;;;9.80;8.80;;;17.90;99.90;;;;;;5045152;28;20187;-76
2021/08/13 03:38:18;;;;;;;11.20;9.07;;;17.50;99.90;;;;;;5045088;28;21006;-75
2021/08/13 03:40:43;;;;;;;9.67;8.77;;;17.80;99.90;;;;;;5046751;28;20421;-76
2021/08/13 03:43:09;;;;;;;9.43;8.30;;;17.80;99.90;;;;;;5045146;28;20803;-76
2021/08/13 03:45:34;;;;;;;10.17;9.17;;;17.80;99.90;;;;;;5046909;28;20219;-76
2021/08/13 03:48:00;;;;;;;10.07;9.17;;;17.60;99.90;;;;;;5046291;28;20416;-76
2021/08/13 03:50:26;;;;;;;11.50;10.00;;;17.60;99.90;;;;;;5045175;28;20198;-76
2021/08/13 03:52:52;;;;;;;10.07;9.17;;;17.80;99.90;;;;;;5043227;28;21027;-76
2021/08/13 03:55:17;;;;;;;10.27;9.37;;;17.60;99.90;;;;;;5044985;28;20273;-76
2021/08/13 03:57:43;;;;;;;11.80;10.70;;;18.00;99.90;;;;;;5045632;28;20196;-75
2021/08/13 04:00:11;;;;;;;11.20;10.10;;;18.10;99.90;;;;;;5050012;28;20215;-76
2021/08/13 04:02:37;;;;;;;11.90;10.70;;;18.10;99.90;;;;;;5045158;28;20189;-76
2021/08/13 04:05:03;;;;;;;10.90;9.90;;;18.00;99.90;;;;;;5043962;28;20481;-75
2021/08/13 04:07:29;;;;;;;10.80;9.80;;;18.30;99.90;;;;;;5046109;28;20440;-75
2021/08/13 04:09:54;;;;;;;10.27;9.37;;;18.10;99.90;;;;;;5045660;28;20575;-76
2021/08/13 04:12:20;;;;;;;11.00;9.97;;;18.30;99.90;;;;;;5042805;28;20651;-76
2021/08/13 04:14:45;;;;;;;10.43;9.43;;;18.10;99.90;;;;;;5044411;28;20188;-75
2021/08/13 04:17:11;;;;;;;10.00;9.03;;;18.20;99.90;;;;;;5045922;28;20201;-75
2021/08/13 04:19:37;;;;;;;11.20;10.20;;;18.20;99.90;;;;;;5046256;28;20714;-75
2021/08/13 04:22:04;;;;;;;10.57;9.47;;;18.30;99.90;;;;;;5043742;28;20237;-76
2021/08/13 04:24:33;;;;;;;11.57;10.47;;;18.30;99.90;;;;;;5042766;28;20228;-75
2021/08/13 04:26:58;;;;;;;11.13;10.03;;;18.20;99.90;;;;;;5044063;28;20469;-75
2021/08/13 04:29:24;;;;;;;11.23;10.13;;;18.20;99.90;;;;;;5045472;28;20887;-75
2021/08/13 04:31:49;;;;;;;11.50;10.40;;;18.10;99.90;;;;;;5046184;28;20630;-76
2021/08/13 04:34:15;;;;;;;10.77;9.70;;;18.40;99.90;;;;;;5045456;28;20262;-75
2021/08/13 04:36:40;;;;;;;11.80;10.60;;;18.40;99.90;;;;;;5040218;28;20187;-75
2021/08/13 04:39:06;;;;;;;12.50;11.33;;;18.40;99.90;;;;;;5042142;28;20482;-76
2021/08/13 04:41:32;;;;;;;11.53;10.33;;;18.70;99.90;;;;;;5043075;28;20552;-76
2021/08/13 04:43:57;;;;;;;11.87;10.67;;;18.70;99.90;;;;;;5045472;28;20307;-76
2021/08/13 04:46:23;;;;;;;11.23;10.30;;;18.80;99.90;;;;;;5043636;28;20565;-76
2021/08/13 04:48:48;;;;;;;11.57;10.57;;;18.70;99.90;;;;;;5044225;28;20318;-76
2021/08/13 04:51:14;;;;;;;10.33;9.37;;;19.00;99.90;;;;;;5042203;28;20190;-75
2021/08/13 04:53:39;;;;;;;9.60;8.70;;;18.80;99.90;;;;;;5049372;28;20202;-76
2021/08/13 04:56:05;;;;;;;10.23;9.23;;;18.90;99.90;;;;;;5049055;28;20200;-76
2021/08/13 04:58:30;;;;;;;11.50;10.20;;;19.10;99.90;;;;;;5044963;28;20208;-76
2021/08/13 05:00:56;;;;;;;10.03;9.03;;;19.00;99.90;;;;;;5044231;28;20193;-76
2021/08/13 05:03:28;;;;;;;11.30;10.27;;;19.00;99.90;;;;;;5043864;28;20211;-76
2021/08/13 05:05:54;;;;;;;11.73;10.73;;;18.80;99.90;;;;;;5040166;28;20181;-75
2021/08/13 05:08:19;;;;;;;12.13;10.87;;;18.90;99.90;;;;;;5043709;28;20501;-76
2021/08/13 05:10:45;;;;;;;11.40;10.30;;;18.70;99.90;;;;;;5043374;28;20196;-75
2021/08/13 05:13:10;;;;;;;10.63;9.73;;;18.70;99.90;;;;;;5039928;28;20211;-76
2021/08/13 05:15:36;;;;;;;11.80;10.70;;;19.30;99.90;;;;;;5043434;28;20185;-76
2021/08/13 05:18:04;;;;;;;10.53;9.57;;;18.80;99.90;;;;;;5045122;28;20238;-76
2021/08/13 05:20:29;;;;;;;10.60;9.70;;;18.90;99.90;;;;;;5043173;28;20602;-76
2021/08/13 05:22:55;;;;;;;10.03;9.10;;;19.10;99.90;;;;;;5044638;28;20437;-76
2021/08/13 05:25:21;;;;;;;10.17;8.90;;;19.10;99.90;;;;;;5045271;28;20216;-76
2021/08/13 05:27:47;;;;;;;10.40;9.20;;;19.30;99.90;;;;;;5046648;28;20222;-76
2021/08/13 05:30:14;;;;;;;10.30;9.40;;;18.90;99.90;;;;;;5045048;28;20467;-76
2021/08/13 05:32:40;;;;;;;9.57;8.67;;;19.10;99.90;;;;;;5044785;28;20198;-76
2021/08/13 05:35:07;;;;;;;9.20;8.40;;;19.50;99.90;;;;;;5043469;28;20430;-76
2021/08/13 05:37:33;;;;;;;8.87;7.97;;;19.30;99.90;;;;;;5045318;28;20515;-76
2021/08/13 05:39:58;;;;;;;9.30;8.40;;;19.20;99.90;;;;;;5044476;28;20965;-75
2021/08/13 05:42:24;;;;;;;9.13;8.33;;;19.50;99.90;;;;;;5041713;28;20197;-77
2021/08/13 05:44:49;;;;;;;9.70;8.90;;;19.70;99.90;;;;;;5044233;28;20212;-75
2021/08/13 05:47:15;;;;;;;9.93;9.03;;;19.90;99.90;;;;;;5041159;28;20280;-74
2021/08/13 05:49:40;;;;;;;9.70;8.80;;;20.40;99.90;;;;;;5048288;28;20186;-74
2021/08/13 05:52:06;;;;;;;10.07;9.17;;;20.60;99.90;;;;;;5048375;28;20179;-75
2021/08/13 05:54:32;;;;;;;9.73;8.70;;;21.00;99.90;;;;;;5044706;28;20191;-75
2021/08/13 05:56:58;;;;;;;10.97;10.00;;;21.30;99.90;;;;;;5044716;28;20436;-75
2021/08/13 05:59:23;;;;;;;9.90;9.00;;;21.70;99.90;;;;;;5045044;28;20662;-75
2021/08/13 06:01:49;;;;;;;9.93;9.03;;;21.70;99.90;;;;;;5040085;28;20186;-75
2021/08/13 06:04:14;;;;;;;10.77;9.87;;;22.40;99.90;;;;;;5040891;28;20593;-75
2021/08/13 06:06:42;;;;;;;10.93;9.93;;;22.10;99.90;;;;;;5051026;28;20175;-74
2021/08/13 06:09:08;;;;;;;10.87;9.80;;;22.30;99.90;;;;;;5043185;28;20545;-74
2021/08/13 06:11:34;;;;;;;10.23;9.33;;;23.10;99.90;;;;;;5046978;28;20424;-74
2021/08/13 06:13:59;;;;;;;9.00;8.30;;;23.30;99.90;;;;;;5044501;28;20609;-75
2021/08/13 06:16:25;;;;;;;10.40;9.40;;;23.80;99.90;;;;;;5044925;28;20201;-74
2021/08/13 06:18:50;;;;;;;9.97;9.07;;;24.30;99.90;;;;;;5046755;28;20180;-74
2021/08/13 06:21:16;;;;;;;9.37;8.57;;;24.50;99.90;;;;;;5043927;28;20529;-74
2021/08/13 06:23:41;;;;;;;9.67;8.77;;;25.30;98.10;;;;;;5044447;28;20213;-75
2021/08/13 06:26:09;;;;;;;9.93;9.13;;;25.70;94.30;;;;;;5044287;28;20210;-74
2021/08/13 06:28:34;;;;;;;15.10;10.67;;;25.90;93.00;;;;;;5044859;28;20271;-74
2021/08/13 06:31:00;;;;;;;9.27;8.47;;;25.80;90.90;;;;;;5044265;28;20467;-74
2021/08/13 06:33:26;;;;;;;9.77;8.97;;;25.70;88.80;;;;;;5042225;28;20660;-74
2021/08/13 06:35:51;;;;;;;9.70;8.70;;;26.00;88.20;;;;;;5043429;28;20646;-74
2021/08/13 06:38:17;;;;;;;9.43;8.70;;;25.90;87.50;;;;;;5046224;28;20241;-74
2021/08/13 06:40:42;;;;;;;9.27;8.23;;;25.80;86.40;;;;;;5047957;28;20188;-74
2021/08/13 06:43:08;;;;;;;9.60;8.80;;;25.70;83.80;;;;;;5047732;28;20647;-74
2021/08/13 06:45:33;;;;;;;9.47;8.50;;;25.90;83.50;;;;;;5049773;28;20683;-74
2021/08/13 06:47:59;;;;;;;9.00;8.30;;;25.80;81.60;;;;;;5049619;28;20695;-74
2021/08/13 06:50:24;;;;;;;9.57;8.80;;;25.30;80.90;;;;;;5047689;28;20549;-74
2021/08/13 06:52:50;;;;;;;8.70;8.00;;;25.40;82.20;;;;;;5047746;28;20314;-73
2021/08/13 06:55:16;;;;;;;8.80;7.93;;;25.40;82.80;;;;;;5044539;28;20273;-74
2021/08/13 06:57:42;;;;;;;9.67;8.80;;;25.20;83.80;;;;;;5045908;28;20194;-73
2021/08/13 07:00:09;;;;;;;8.37;7.60;;;25.10;83.60;;;;;;5047638;28;20555;-74
2021/08/13 07:02:35;;;;;;;8.43;7.73;;;25.00;84.50;;;;;;5046127;28;20473;-74
2021/08/13 07:05:00;;;;;;;8.60;7.80;;;25.30;85.20;;;;;;5047419;28;20504;-74
2021/08/13 07:07:26;;;;;;;8.83;7.93;;;25.10;83.90;;;;;;5044031;28;20668;-74
2021/08/13 07:09:52;;;;;;;8.33;7.63;;;25.30;83.70;;;;;;5047329;28;20190;-74
2021/08/13 07:12:18;;;;;;;8.63;7.93;;;25.50;83.40;;;;;;5046343;28;20400;-76
2021/08/13 07:14:44;;;;;;;8.47;7.73;;;25.30;84.30;;;;;;5047059;28;20226;-74
2021/08/13 07:17:10;;;;;;;8.40;7.63;;;25.60;81.00;;;;;;5046832;28;20804;-75
2021/08/13 07:19:36;;;;;;;8.07;7.30;;;25.50;79.80;;;;;;5051315;28;20632;-74
2021/08/13 07:22:02;;;;;;;7.30;6.73;;;25.70;78.20;;;;;;5055017;28;21037;-75
2021/08/13 07:24:28;;;;;;;7.57;6.80;;;25.90;78.60;;;;;;5045520;28;20260;-75
2021/08/13 07:26:54;;;;;;;7.97;7.27;;;25.50;76.60;;;;;;5044954;28;20832;-74
2021/08/13 07:29:21;;;;;;;7.37;6.77;;;25.70;76.70;;;;;;5045505;28;20754;-75
2021/08/13 07:31:47;;;;;;;9.07;8.27;;;25.60;76.50;;;;;;5046192;28;20273;-75
2021/08/13 07:34:12;;;;;;;8.17;7.10;;;25.80;73.20;;;;;;5041196;28;20539;-75
2021/08/13 07:36:38;;;;;;;7.23;6.53;;;25.90;74.90;;;;;;5043492;28;20989;-74
2021/08/13 07:39:03;;;;;;;8.07;7.43;;;26.00;73.10;;;;;;5046652;28;20599;-74
2021/08/13 07:41:29;;;;;;;6.70;6.10;;;25.90;72.60;;;;;;5047547;28;20225;-75
2021/08/13 07:43:54;;;;;;;7.00;6.30;;;25.90;72.80;;;;;;5044214;28;20222;-75
2021/08/13 07:46:20;;;;;;;7.17;5.33;;;26.40;71.70;;;;;;5043010;28;20706;-75
2021/08/13 07:48:45;;;;;;;6.17;5.67;;;26.40;70.20;;;;;;5047921;28;20178;-75
2021/08/13 07:51:11;;;;;;;7.30;6.20;;;26.50;69.60;;;;;;5044928;28;20189;-74
2021/08/13 07:53:36;;;;;;;9.47;8.60;;;26.70;67.10;;;;;;5046739;28;20668;-74
2021/08/13 07:56:03;;;;;;;6.73;5.90;;;26.80;65.80;;;;;;5042819;28;20187;-74
2021/08/13 07:58:28;;;;;;;6.37;5.87;;;26.90;64.90;;;;;;5046255;28;20182;-75
2021/08/13 08:00:54;;;;;;;7.00;5.70;;;27.00;65.10;;;;;;5046717;28;20433;-74
2021/08/13 08:03:19;;;;;;;6.10;5.50;;;27.20;63.80;;;;;;5040377;28;20183;-75
2021/08/13 08:05:45;;;;;;;6.17;5.57;;;27.30;63.30;;;;;;5048597;28;20224;-74
2021/08/13 08:08:11;;;;;;;5.27;4.73;;;27.40;62.60;;;;;;5047494;28;20666;-73
2021/08/13 08:10:37;;;;;;;5.93;5.20;;;27.60;63.40;;;;;;5046645;28;20196;-73
2021/08/13 08:13:03;;;;;;;6.37;5.10;;;27.80;63.00;;;;;;5044301;28;20198;-75
2021/08/13 08:15:28;;;;;;;5.87;5.27;;;27.90;59.50;;;;;;5040566;28;20453;-76
2021/08/13 08:17:54;;;;;;;5.90;5.40;;;28.00;59.00;;;;;;5044802;28;20199;-76
2021/08/13 08:20:19;;;;;;;6.87;6.10;;;28.10;57.70;;;;;;5045188;28;20261;-74
2021/08/13 08:22:45;;;;;;;4.90;4.50;;;28.20;57.80;;;;;;5046539;28;20185;-76
2021/08/13 08:25:11;;;;;;;6.77;6.07;;;28.30;58.40;;;;;;5041856;28;20212;-76
2021/08/13 08:27:37;;;;;;;5.20;4.70;;;28.50;57.80;;;;;;5044591;28;20195;-74
2021/08/13 08:30:04;;;;;;;6.47;5.90;;;28.70;56.80;;;;;;5045706;28;20188;-76
2021/08/13 08:32:29;;;;;;;6.00;5.60;;;28.90;56.60;;;;;;5049367;28;20490;-75
2021/08/13 08:34:55;;;;;;;6.17;5.57;;;29.20;57.20;;;;;;5049072;28;20432;-76
2021/08/13 08:37:21;;;;;;;6.60;5.97;;;29.40;56.20;;;;;;5044309;28;20228;-73
2021/08/13 08:39:47;;;;;;;5.97;5.30;;;29.60;54.80;;;;;;5045516;28;20188;-73
2021/08/13 08:42:16;;;;;;;6.80;6.03;;;29.80;55.00;;;;;;5045124;28;20437;-73
2021/08/13 08:44:42;;;;;;;6.60;6.00;;;30.00;54.90;;;;;;5048582;28;20473;-73
2021/08/13 08:47:08;;;;;;;7.50;5.40;;;30.20;54.20;;;;;;5045930;28;20498;-73
2021/08/13 08:49:36;;;;;;;6.27;5.70;;;30.30;53.70;;;;;;5043827;28;20189;-73
2021/08/13 08:52:02;;;;;;;6.70;5.90;;;30.60;54.00;;;;;;5041886;28;20436;-73
2021/08/13 08:54:28;;;;;;;8.33;6.60;;;31.50;53.20;;;;;;5041818;28;20435;-74
2021/08/13 08:56:55;;;;;;;9.53;6.50;;;32.60;50.20;;;;;;5047473;28;20675;-74
2021/08/13 08:59:23;;;;;;;9.60;6.00;;;33.60;47.10;;;;;;5047034;28;20930;-74
2021/08/13 09:01:49;;;;;;;5.67;5.17;;;34.60;44.80;;;;;;5039913;28;20459;-74
2021/08/13 09:04:15;;;;;;;7.00;6.30;;;35.70;43.10;;;;;;5043675;28;20471;-74
2021/08/13 09:06:41;;;;;;;6.00;5.43;;;36.70;40.70;;;;;;5047111;28;20178;-74
2021/08/13 09:09:08;;;;;;;6.97;6.47;;;37.70;38.60;;;;;;5045038;28;20174;-74
2021/08/13 09:11:36;;;;;;;7.73;6.03;;;38.60;36.90;;;;;;5045129;28;20425;-74
2021/08/13 09:14:10;;;;;;;6.30;5.80;;;39.50;35.00;;;;;;5041651;28;20440;-73
2021/08/13 09:16:36;;;;;;;6.80;6.27;;;40.30;33.00;;;;;;5045287;28;20480;-74
2021/08/13 09:19:05;;;;;;;6.23;5.63;;;40.90;32.30;;;;;;5045036;28;20432;-73
2021/08/13 09:21:31;;;;;;;6.67;6.07;;;41.50;30.70;;;;;;5043207;28;20467;-73
2021/08/13 09:24:00;;;;;;;6.77;6.17;;;41.90;30.20;;;;;;5033585;28;20464;-73
2021/08/13 09:26:28;;;;;;;7.70;6.60;;;42.50;29.80;;;;;;5048603;28;20431;-74
2021/08/13 09:28:59;;;;;;;6.70;6.10;;;43.00;28.70;;;;;;5044870;28;20425;-75
2021/08/13 09:31:30;;;;;;;6.33;5.83;;;43.50;28.10;;;;;;5043260;28;20487;-73
2021/08/13 09:34:13;;;;;;;7.27;6.67;;;44.10;27.50;;;;;;5044561;28;20506;-74
2021/08/13 09:36:53;;;;;;;7.10;6.40;;;44.60;26.60;;;;;;5041794;28;20433;-74
2021/08/13 09:39:27;;;;;;;7.07;6.33;;;45.30;25.50;;;;;;5043319;28;20996;-73
2021/08/13 09:41:56;;;;;;;7.80;6.50;;;45.20;25.70;;;;;;5044680;28;20439;-74
2021/08/13 09:44:31;;;;;;;7.70;6.70;;;45.50;25.60;;;;;;5042990;28;21001;-74
2021/08/13 09:47:01;;;;;;;6.83;6.23;;;45.90;25.70;;;;;;5044933;28;20829;-74
2021/08/13 09:49:32;;;;;;;6.77;6.17;;;45.90;25.50;;;;;;5043125;28;20810;-73
2021/08/13 09:52:14;;;;;;;6.90;6.20;;;45.70;24.80;;;;;;5044451;28;20436;-74
2021/08/13 09:54:40;;;;;;;6.90;6.30;;;45.50;25.20;;;;;;5045999;28;20469;-74
2021/08/13 09:57:08;;;;;;;6.60;6.10;;;45.60;25.40;;;;;;5043383;28;20522;-74
2021/08/13 09:59:34;;;;;;;7.10;6.50;;;45.70;25.40;;;;;;5041821;28;20676;-74
2021/08/13 10:02:12;;;;;;;7.20;6.60;;;46.10;25.10;;;;;;5045107;28;20440;-74
2021/08/13 10:04:39;;;;;;;7.33;6.83;;;46.40;24.50;;;;;;5039348;28;20210;-74
2021/08/13 10:07:05;;;;;;;6.90;6.30;;;46.30;24.10;;;;;;5041593;28;20524;-74
2021/08/13 10:09:31;;;;;;;10.43;9.73;;;46.10;24.40;;;;;;5043895;28;20524;-74
2021/08/13 10:12:05;;;;;;;8.20;7.40;;;45.90;24.90;;;;;;5048460;28;20653;-78
2021/08/13 10:14:35;;;;;;;7.57;6.77;;;45.80;24.90;;;;;;5048575;28;20443;-74
2021/08/13 10:17:13;;;;;;;7.00;6.43;;;45.80;24.40;;;;;;5048072;28;20527;-74
2021/08/13 10:19:50;;;;;;;7.30;6.60;;;45.90;24.90;;;;;;5048493;28;20792;-74
2021/08/13 10:22:17;;;;;;;7.33;6.80;;;45.30;25.00;;;;;;5048687;28;20436;-74
2021/08/13 10:24:44;;;;;;;6.73;6.17;;;44.70;25.60;;;;;;5048786;28;20460;-74
2021/08/13 10:27:11;;;;;;;7.13;6.53;;;43.70;26.20;;;;;;5047118;28;20424;-74
2021/08/13 10:29:37;;;;;;;9.13;7.70;;;43.10;27.60;;;;;;5053219;28;20947;-75
2021/08/13 10:32:03;;;;;;;7.67;6.97;;;42.50;27.60;;;;;;5049948;28;20433;-75
2021/08/13 10:34:30;;;;;;;6.70;6.10;;;41.90;28.80;;;;;;5050231;28;20315;-73
2021/08/13 10:36:56;;;;;;;6.70;6.20;;;42.00;29.30;;;;;;5048391;28;20425;-74
2021/08/13 10:39:25;;;;;;;7.43;6.73;;;41.90;28.60;;;;;;5048523;28;20440;-74
2021/08/13 10:41:54;;;;;;;6.30;5.80;;;42.00;29.30;;;;;;5045303;28;20439;-74
2021/08/13 10:44:24;;;;;;;7.67;7.07;;;42.50;29.00;;;;;;5048140;28;20482;-74
2021/08/13 10:46:52;;;;;;;6.80;6.20;;;43.40;28.20;;;;;;5049818;28;20805;-73
2021/08/13 10:49:19;;;;;;;8.30;6.83;;;43.50;27.40;;;;;;5047596;28;20429;-74
2021/08/13 10:51:45;;;;;;;7.83;7.03;;;43.30;27.30;;;;;;5050356;28;20834;-74
2021/08/13 10:54:19;;;;;;;7.37;6.67;;;42.50;27.60;;;;;;5046395;28;20464;-74
2021/08/13 10:56:47;;;;;;;7.60;7.00;;;42.40;29.10;;;;;;5046302;28;20199;-74
2021/08/13 10:59:33;;;;;;;8.03;6.73;;;43.70;28.80;;;;;;5046462;28;20437;-75
2021/08/13 11:02:16;;;;;;;7.80;6.97;;;44.30;27.20;;;;;;5046467;28;20441;-74
2021/08/13 11:04:50;;;;;;;7.07;6.47;;;42.80;27.30;;;;;;5041060;28;20464;-74
2021/08/13 11:07:54;;;;;;;7.73;6.97;;;41.60;28.60;;;;;;5045547;28;20421;-74
2021/08/13 11:10:37;;;;;;;8.77;7.90;;;40.80;30.00;;;;;;5042315;28;20489;-74
2021/08/13 11:13:14;;;;;;;8.60;7.90;;;40.00;32.50;;;;;;5048051;28;20440;-73
2021/08/13 11:15:39;;;;;;;9.23;7.83;;;40.30;34.00;;;;;;5043406;28;20436;-74
2021/08/13 11:18:40;;;;;;;9.07;8.07;;;41.50;31.50;;;;;;5047073;28;20441;-75
2021/08/13 11:21:09;;;;;;;9.13;8.43;;;42.40;30.00;;;;;;5028836;28;20228;-74
2021/08/13 11:24:01;;;;;;;8.60;7.80;;;42.20;30.00;;;;;;5047319;28;20445;-74
2021/08/13 11:26:55;;;;;;;10.67;7.87;;;41.90;30.60;;;;;;5045730;28;20842;-74
2021/08/13 11:29:30;;;;;;;9.03;8.23;;;42.70;30.00;;;;;;5045650;28;20464;-73
2021/08/13 11:32:13;;;;;;;8.80;8.00;;;44.20;28.60;;;;;;5045630;28;20466;-75
2021/08/13 11:35:02;;;;;;;8.20;7.50;;;45.00;27.50;;;;;;5043555;28;20460;-74
2021/08/13 11:37:30;;;;;;;8.87;8.10;;;45.50;27.30;;;;;;5047086;28;20484;-73
2021/08/13 11:40:01;;;;;;;8.43;7.80;;;46.20;25.90;;;;;;5048692;28;20443;-74
2021/08/13 11:42:31;;;;;;;8.30;7.60;;;46.90;25.90;;;;;;5046767;28;20428;-74
2021/08/13 11:45:02;;;;;;;7.73;7.10;;;46.80;24.90;;;;;;5039889;28;20483;-74
2021/08/13 11:47:27;;;;;;;8.17;7.57;;;45.90;25.30;;;;;;5046251;28;21065;-73
2021/08/13 11:49:54;;;;;;;8.37;7.60;;;44.90;26.70;;;;;;5050378;28;20516;-74
2021/08/13 11:52:27;;;;;;;9.00;8.30;;;44.60;27.60;;;;;;5041348;28;20189;-74
2021/08/13 11:54:53;;;;;;;9.13;8.30;;;45.00;26.80;;;;;;5045143;28;20429;-74
2021/08/13 11:57:23;;;;;;;9.47;8.57;;;45.50;27.00;;;;;;5044734;28;21019;-74
2021/08/13 11:59:50;;;;;;;9.37;8.63;;;45.00;26.40;;;;;;5044961;28;20437;-74
2021/08/13 12:02:29;;;;;;;8.67;7.97;;;44.50;27.10;;;;;;5041190;28;20851;-73
2021/08/13 12:05:06;;;;;;;10.20;8.53;;;44.60;26.80;;;;;;5046300;28;20475;-74
2021/08/13 12:07:31;;;;;;;9.73;8.97;;;44.30;26.70;;;;;;5048150;28;20437;-74
2021/08/13 12:09:57;;;;;;;9.27;8.33;;;43.40;27.30;;;;;;5046075;28;20429;-75
2021/08/13 12:12:29;;;;;;;9.40;8.60;;;42.20;28.10;;;;;;5047903;28;20213;-73
2021/08/13 12:14:56;;;;;;;9.63;8.73;;;41.00;30.00;;;;;;5046184;28;20198;-73
2021/08/13 12:17:21;;;;;;;8.70;8.10;;;40.90;32.60;;;;;;5044520;28;20428;-74
2021/08/13 12:20:02;;;;;;;9.77;8.87;;;41.80;32.00;;;;;;5047999;28;21012;-73
2021/08/13 12:22:32;;;;;;;8.30;7.60;;;43.00;31.30;;;;;;5042569;28;20196;-74
2021/08/13 12:24:58;;;;;;;9.10;8.40;;;43.60;28.60;;;;;;5045468;28;20983;-74
2021/08/13 12:27:36;;;;;;;9.57;8.77;;;44.30;27.50;;;;;;5044579;28;20449;-74
2021/08/13 12:30:03;;;;;;;9.07;8.37;;;44.60;27.10;;;;;;5043786;28;20435;-74
2021/08/13 12:32:36;;;;;;;9.00;8.20;;;44.30;26.50;;;;;;5040430;28;20477;-74
2021/08/13 12:35:03;;;;;;;10.33;9.50;;;43.40;27.20;;;;;;5045821;28;20486;-74
2021/08/13 12:37:29;;;;;;;9.50;8.50;;;41.90;28.50;;;;;;5047640;28;20643;-73
2021/08/13 12:40:00;;;;;;;9.47;8.57;;;40.70;30.00;;;;;;5049051;28;20839;-74
2021/08/13 12:42:26;;;;;;;9.93;9.03;;;39.20;32.40;;;;;;5036159;28;20670;-73
2021/08/13 12:44:52;;;;;;;9.80;9.00;;;38.20;34.70;;;;;;5042154;28;20480;-74
2021/08/13 12:47:18;;;;;;;10.10;9.20;;;37.40;36.80;;;;;;5040153;28;20190;-73
2021/08/13 12:49:45;;;;;;;10.13;9.00;;;37.30;37.40;;;;;;5045429;28;20964;-74